Centralia, Washington
Current Conditions -  °F | °C
As of 9:55 PM on Saturday 20 Dec 2014 (Local Time) from KCLS Reporting Station
Drizzle Drizzle  
Wind Chill: 13°   Ceiling: 1200
Heat Index: 13°   Visibility: 3mi
Dew Point: 13°   Wind: 5mph
Humidity: 100%   Direction: NA
Pressure: 29.6"   Gusts: NA
Location:  46.73°N, 122.95°W
Report Text: KCLS 210555Z AUTO VRB04KT 3SM -DZ FEW008 BKN012 OVC022 13/13 A2960 RMK AO2
Loading
Personal Weather Stations






























Interactive Weather Map New forecast layout! Learn more

10-Day Weather Forecast

Advertisements
Track Severe Weather on mobile